Coral Topaz — 3ELB7 — position and weather

sailwx.info

Track history (hours):
 
Tides and Currents Weather Stations Pressure Air Temp Water Temp Dewpoint Dewpoint Depression Visibility Wind Speed Wind Dir Waves Ship Positions

Coral Topaz

Last reported at 2016-Aug-30 17:33 UTC. Time now 2016-Sep-30 11:51 UTC.
Position S 26°59' E 153°52'.
Warning: this ship's position is 30 days out of date.

Length 225 m; draft 12.5 m.

Type: Ship. MMSI: 372904000.

Date/timePositionNaut miles runAvg speedWind from/ knotsBaromVisibWave heightAir tempDewpointWater temp
2016-Aug-30 17:33S 26°59' E 153°52'33712.0
2016-Aug-29 13:33S 32°29' E 152°37'1212.2
2016-Aug-29 12:34S 32°38' E 152°28'1312.6
2016-Aug-29 11:33S 32°47' E 152°17'1212.5
2016-Aug-29 10:34S 32°56' E 152°06'1212.1
2016-Aug-29 09:33S 33°00' E 151°53'7 6.7
2016-Aug-29 08:34S 32°55' E 151°48'2 1.5
2016-Aug-29 07:33S 32°54' E 151°46'0 0.0
2016-Aug-29 06:24S 32°54' E 151°46'0 0.0
2016-Aug-29 05:30S 32°54' E 151°46'0 0.0
2016-Aug-29 04:30S 32°54' E 151°46'0 0.0
2016-Aug-29 03:30S 32°54' E 151°46'0 0.0
2016-Aug-29 02:30S 32°54' E 151°46'0 0.0
2016-Aug-29 01:33S 32°54' E 151°46'0 0.0
2016-Aug-29 00:24S 32°54' E 151°46'0 0.0
2016-Aug-28 23:27S 32°54' E 151°46'0 0.0
2016-Aug-28 22:33S 32°54' E 151°46'0 0.0
2016-Aug-28 21:33S 32°54' E 151°46'0 0.0
2016-Aug-28 20:33S 32°54' E 151°46'0 0.0
2016-Aug-28 19:30S 32°54' E 151°46'0 0.0
2016-Aug-28 18:06S 32°54' E 151°46'0 0.0
2016-Aug-28 17:33S 32°54' E 151°46'0 0.0
2016-Aug-28 16:33S 32°54' E 151°46'0 0.0
2016-Aug-28 15:33S 32°54' E 151°46'0 0.0
2016-Aug-28 14:33S 32°54' E 151°46'0 0.0
2016-Aug-28 13:33S 32°54' E 151°46'0 0.0
2016-Aug-28 12:33S 32°54' E 151°46'0 0.0
2016-Aug-28 11:33S 32°54' E 151°46'0 0.0
2016-Aug-28 10:33S 32°54' E 151°46'0 0.0
2016-Aug-28 09:30S 32°54' E 151°46'0 0.0
2016-Aug-28 08:33S 32°54' E 151°46'0 0.0
2016-Aug-28 07:33S 32°54' E 151°46'0 0.0
2016-Aug-28 06:33S 32°54' E 151°46'0 0.0
2016-Aug-28 05:33S 32°54' E 151°46'2 1.6
2016-Aug-28 04:33S 32°55' E 151°48'6 5.9
2016-Aug-28 03:34S 32°60' E 151°52'4 0.5
2016-Aug-27 18:16S 33°02' E 151°48'0 0.1
2016-Aug-27 16:13S 33°01' E 151°47'3 0.2
2016-Aug-26 22:32S 33°01' E 151°51'10 9.8
2016-Aug-26 21:33S 33°03' E 152°02'9 8.6
2016-Aug-26 20:33S 33°06' E 152°12'1 1.4
2016-Aug-26 19:33S 33°07' E 152°11'1 1.2
2016-Aug-26 18:33S 33°08' E 152°11'1 1.3
2016-Aug-26 17:33S 33°09' E 152°10'1 1.1
2016-Aug-26 16:27S 33°10' E 152°10'4 4.9
2016-Aug-26 15:33S 33°06' E 152°08'8 7.9
2016-Aug-26 14:33S 32°59' E 152°05'2 1.7
2016-Aug-26 13:31S 33°00' E 152°04'2 1.7
2016-Aug-26 12:31S 33°02' E 152°05'2 1.6
2016-Aug-26 11:31S 33°03' E 152°05'2 1.8
2016-Aug-26 10:31S 33°05' E 152°05'2 1.6
2016-Aug-26 09:31S 33°07' E 152°06'2 1.6
2016-Aug-26 08:31S 33°08' E 152°06'2 1.6
2016-Aug-26 07:31S 33°10' E 152°07'0 0.4
2016-Aug-26 06:23S 33°09' E 152°07'14 7.8
2016-Aug-26 04:33S 32°55' E 152°09'1110.9
2016-Aug-26 03:33S 32°47' E 152°18'1010.2
2016-Aug-26 02:33S 32°40' E 152°26'1110.4
2016-Aug-26 01:32S 32°33' E 152°36'  
Track history (hours):
 
Tides and Currents Weather Stations Pressure Air Temp Water Temp Dewpoint Dewpoint Depression Visibility Wind Speed Wind Dir Waves Ship Positions

Coral Topaz

Last reported at 2016-Aug-30 17:33 UTC. Time now 2016-Sep-30 11:51 UTC.
Position S 26°59' E 153°52'.
Warning: this ship's position is 30 days out of date.

Length 225 m; draft 12.5 m.

Type: Ship. MMSI: 372904000.

Date/timePositionNaut miles runAvg speedWind from/ knotsBaromVisibWave heightAir tempDewpointWater temp
2016-Aug-30 17:33S 26°59' E 153°52'33712.0
2016-Aug-29 13:33S 32°29' E 152°37'1212.2
2016-Aug-29 12:34S 32°38' E 152°28'1312.6
2016-Aug-29 11:33S 32°47' E 152°17'1212.5
2016-Aug-29 10:34S 32°56' E 152°06'1212.1
2016-Aug-29 09:33S 33°00' E 151°53'7 6.7
2016-Aug-29 08:34S 32°55' E 151°48'2 1.5
2016-Aug-29 07:33S 32°54' E 151°46'0 0.0
2016-Aug-29 06:24S 32°54' E 151°46'0 0.0
2016-Aug-29 05:30S 32°54' E 151°46'0 0.0
2016-Aug-29 04:30S 32°54' E 151°46'0 0.0
2016-Aug-29 03:30S 32°54' E 151°46'0 0.0
2016-Aug-29 02:30S 32°54' E 151°46'0 0.0
2016-Aug-29 01:33S 32°54' E 151°46'0 0.0
2016-Aug-29 00:24S 32°54' E 151°46'0 0.0
2016-Aug-28 23:27S 32°54' E 151°46'0 0.0
2016-Aug-28 22:33S 32°54' E 151°46'0 0.0
2016-Aug-28 21:33S 32°54' E 151°46'0 0.0
2016-Aug-28 20:33S 32°54' E 151°46'0 0.0
2016-Aug-28 19:30S 32°54' E 151°46'0 0.0
2016-Aug-28 18:06S 32°54' E 151°46'0 0.0
2016-Aug-28 17:33S 32°54' E 151°46'0 0.0
2016-Aug-28 16:33S 32°54' E 151°46'0 0.0
2016-Aug-28 15:33S 32°54' E 151°46'0 0.0
2016-Aug-28 14:33S 32°54' E 151°46'0 0.0
2016-Aug-28 13:33S 32°54' E 151°46'0 0.0
2016-Aug-28 12:33S 32°54' E 151°46'0 0.0
2016-Aug-28 11:33S 32°54' E 151°46'0 0.0
2016-Aug-28 10:33S 32°54' E 151°46'0 0.0
2016-Aug-28 09:30S 32°54' E 151°46'0 0.0
2016-Aug-28 08:33S 32°54' E 151°46'0 0.0
2016-Aug-28 07:33S 32°54' E 151°46'0 0.0
2016-Aug-28 06:33S 32°54' E 151°46'0 0.0
2016-Aug-28 05:33S 32°54' E 151°46'2 1.6
2016-Aug-28 04:33S 32°55' E 151°48'6 5.9
2016-Aug-28 03:34S 32°60' E 151°52'4 0.5
2016-Aug-27 18:16S 33°02' E 151°48'0 0.1
2016-Aug-27 16:13S 33°01' E 151°47'3 0.2
2016-Aug-26 22:32S 33°01' E 151°51'10 9.8
2016-Aug-26 21:33S 33°03' E 152°02'9 8.6
2016-Aug-26 20:33S 33°06' E 152°12'1 1.4
2016-Aug-26 19:33S 33°07' E 152°11'1 1.2
2016-Aug-26 18:33S 33°08' E 152°11'1 1.3
2016-Aug-26 17:33S 33°09' E 152°10'1 1.1
2016-Aug-26 16:27S 33°10' E 152°10'4 4.9
2016-Aug-26 15:33S 33°06' E 152°08'8 7.9
2016-Aug-26 14:33S 32°59' E 152°05'2 1.7
2016-Aug-26 13:31S 33°00' E 152°04'2 1.7
2016-Aug-26 12:31S 33°02' E 152°05'2 1.6
2016-Aug-26 11:31S 33°03' E 152°05'2 1.8
2016-Aug-26 10:31S 33°05' E 152°05'2 1.6
2016-Aug-26 09:31S 33°07' E 152°06'2 1.6
2016-Aug-26 08:31S 33°08' E 152°06'2 1.6
2016-Aug-26 07:31S 33°10' E 152°07'0 0.4
2016-Aug-26 06:23S 33°09' E 152°07'14 7.8
2016-Aug-26 04:33S 32°55' E 152°09'1110.9
2016-Aug-26 03:33S 32°47' E 152°18'1010.2
2016-Aug-26 02:33S 32°40' E 152°26'1110.4
2016-Aug-26 01:32S 32°33' E 152°36'  

Dump ship's entire track history